Time;durP1;ratioP1;P1;durP2;ratioP2;P2;SDS_P1;SDS_P2;PMS_P1;PMS_P2;Temp;Humidity;BMP_temperature;BMP_pressure;BME280_temperature;BME280_humidity;BME280_pressure;Samples;Min_cycle;Max_cycle;Signal;HPM_P1;HPM_P2
2021/12/06 00:01:38;;;;;;;11.85;6.88;;;2.40;99.90;;;;;;4969214;28;20104;-75
2021/12/06 00:04:19;;;;;;;10.95;6.65;;;2.40;99.90;;;;;;4969500;28;20027;-73
2021/12/06 00:06:48;;;;;;;14.18;6.15;;;2.50;99.90;;;;;;4987514;28;20034;-74
2021/12/06 00:09:19;;;;;;;11.35;6.30;;;2.50;99.90;;;;;;4969511;28;20105;-73
2021/12/06 00:11:46;;;;;;;11.93;5.95;;;2.50;99.90;;;;;;4969082;28;20023;-73
2021/12/06 00:14:12;;;;;;;11.43;6.70;;;2.50;99.90;;;;;;4964756;28;20502;-73
2021/12/06 00:16:38;;;;;;;12.57;7.05;;;2.40;99.90;;;;;;4969672;28;20091;-73
2021/12/06 00:19:06;;;;;;;11.32;6.63;;;2.50;99.90;;;;;;4970274;28;20118;-73
2021/12/06 00:21:32;;;;;;;9.13;5.82;;;2.50;99.90;;;;;;4968688;28;20081;-72
2021/12/06 00:23:58;;;;;;;12.15;6.57;;;2.50;99.90;;;;;;4969357;28;20031;-72
2021/12/06 00:26:24;;;;;;;8.57;5.70;;;2.50;99.90;;;;;;4969590;28;20383;-72
2021/12/06 00:28:56;;;;;;;9.68;5.80;;;2.40;99.90;;;;;;4969355;28;20031;-72
2021/12/06 00:31:23;;;;;;;12.02;6.45;;;2.40;99.90;;;;;;4966651;28;20023;-72
2021/12/06 00:33:56;;;;;;;14.60;6.07;;;2.40;99.90;;;;;;4969887;28;20110;-72
2021/12/06 00:36:28;;;;;;;10.32;6.30;;;2.40;99.90;;;;;;4969657;28;20092;-72
2021/12/06 00:38:55;;;;;;;13.85;8.00;;;2.40;99.90;;;;;;4964393;28;20023;-72
2021/12/06 00:41:21;;;;;;;12.90;8.13;;;2.50;99.90;;;;;;4967307;28;20026;-72
2021/12/06 00:43:47;;;;;;;16.77;8.60;;;2.50;99.90;;;;;;4965964;28;20117;-73
2021/12/06 00:46:13;;;;;;;17.67;10.15;;;2.50;99.90;;;;;;4970415;28;20101;-73
2021/12/06 00:48:39;;;;;;;13.90;8.90;;;2.50;99.90;;;;;;4969241;28;20035;-72
2021/12/06 00:51:05;;;;;;;17.02;10.00;;;2.50;99.90;;;;;;4963448;28;20384;-72
2021/12/06 00:53:31;;;;;;;18.52;9.88;;;2.50;99.90;;;;;;4961904;28;20020;-72
2021/12/06 00:55:57;;;;;;;17.73;10.45;;;2.50;99.90;;;;;;4968779;28;20553;-72
2021/12/06 00:58:24;;;;;;;20.52;10.15;;;2.50;99.90;;;;;;4968515;28;20031;-73
2021/12/06 01:00:52;;;;;;;18.85;10.38;;;2.50;99.90;;;;;;4961941;28;20066;-73
2021/12/06 01:03:22;;;;;;;19.73;10.13;;;2.50;99.90;;;;;;4968485;28;20444;-72
2021/12/06 01:05:48;;;;;;;18.50;10.18;;;2.50;99.90;;;;;;4959428;28;20031;-72
2021/12/06 01:08:15;;;;;;;19.73;9.52;;;2.50;99.90;;;;;;4957602;28;20030;-72
2021/12/06 01:10:41;;;;;;;16.13;9.27;;;2.40;99.90;;;;;;4963575;28;20542;-72
2021/12/06 01:13:07;;;;;;;18.63;9.98;;;2.40;99.90;;;;;;4965777;28;20027;-72
2021/12/06 01:15:34;;;;;;;19.20;9.93;;;2.40;99.90;;;;;;4961405;28;20042;-72
2021/12/06 01:18:02;;;;;;;16.00;9.25;;;2.40;99.90;;;;;;4965787;28;20039;-72
2021/12/06 01:20:31;;;;;;;17.90;9.60;;;2.40;99.90;;;;;;4968040;28;20133;-73
2021/12/06 01:23:06;;;;;;;15.77;9.32;;;2.30;99.90;;;;;;4966354;28;20498;-71
2021/12/06 01:26:31;;;;;;;14.98;9.15;;;2.40;99.90;;;;;;4963225;28;20035;-72
2021/12/06 01:28:57;;;;;;;16.42;7.55;;;2.40;99.90;;;;;;4971955;28;20034;-72
2021/12/06 01:31:21;;;;;;;13.52;7.38;;;2.40;99.90;;;;;;4970652;28;20030;-72
2021/12/06 01:39:15;;;;;;;9.27;5.13;;;2.40;99.90;;;;;;4968476;28;20042;-72
2021/12/06 01:41:54;;;;;;;10.45;5.28;;;2.40;99.90;;;;;;4966797;28;20022;-72
2021/12/06 01:44:23;;;;;;;9.88;5.20;;;2.40;99.90;;;;;;4964179;28;20030;-74
2021/12/06 01:47:04;;;;;;;6.68;4.05;;;2.30;99.90;;;;;;4967504;28;20023;-74
2021/12/06 01:49:34;;;;;;;8.95;5.22;;;2.30;99.90;;;;;;4986357;28;20081;-72
2021/12/06 01:52:05;;;;;;;10.90;5.78;;;2.30;99.90;;;;;;4972526;28;20555;-72
2021/12/06 01:54:30;;;;;;;10.43;4.63;;;2.30;99.90;;;;;;4973457;28;20106;-72
2021/12/06 01:56:56;;;;;;;7.95;4.38;;;2.30;99.90;;;;;;4971799;28;20107;-72
2021/12/06 01:59:24;;;;;;;9.70;5.30;;;2.30;99.90;;;;;;4973737;28;20043;-72
2021/12/06 02:01:53;;;;;;;8.73;4.88;;;2.30;99.90;;;;;;4972959;28;20100;-74
2021/12/06 02:04:19;;;;;;;8.27;4.18;;;2.30;99.90;;;;;;4974717;28;20058;-72
2021/12/06 02:06:45;;;;;;;8.80;4.25;;;2.30;99.90;;;;;;4974630;28;20424;-72
2021/12/06 02:09:13;;;;;;;12.07;5.15;;;2.30;99.90;;;;;;4973161;28;20101;-72
2021/12/06 02:11:43;;;;;;;9.07;4.43;;;2.30;99.90;;;;;;4987148;28;20019;-72
2021/12/06 02:17:13;;;;;;;14.13;5.03;;;2.30;99.90;;;;;;4970809;28;20041;-73
2021/12/06 02:19:38;;;;;;;9.90;4.97;;;2.30;99.90;;;;;;4970007;28;20832;-73
2021/12/06 02:22:06;;;;;;;10.05;5.53;;;2.30;99.90;;;;;;4980277;28;20034;-73
2021/12/06 02:24:33;;;;;;;8.30;4.78;;;2.30;99.90;;;;;;4975989;28;20058;-72
2021/12/06 02:26:59;;;;;;;9.45;5.10;;;2.30;99.90;;;;;;4991549;28;20039;-73
2021/12/06 02:29:25;;;;;;;9.52;4.65;;;2.30;99.90;;;;;;4974713;28;20034;-73
2021/12/06 02:31:52;;;;;;;10.27;4.72;;;2.30;99.90;;;;;;4979643;28;20022;-73
2021/12/06 02:34:18;;;;;;;9.52;5.07;;;2.30;99.90;;;;;;4976921;28;20041;-73
2021/12/06 02:36:46;;;;;;;8.38;4.85;;;2.30;99.90;;;;;;4974200;28;20034;-72
2021/12/06 02:39:19;;;;;;;9.57;4.78;;;2.30;99.90;;;;;;4988282;28;20041;-72
2021/12/06 02:41:51;;;;;;;8.52;5.55;;;2.30;99.90;;;;;;4975595;28;20035;-72
2021/12/06 02:44:17;;;;;;;15.65;6.85;;;2.30;99.90;;;;;;4981821;28;20125;-73
2021/12/06 02:46:43;;;;;;;13.98;8.52;;;2.30;99.90;;;;;;4977297;28;20054;-74
2021/12/06 02:49:09;;;;;;;14.70;8.93;;;2.30;99.90;;;;;;4967435;28;20027;-73
2021/12/06 02:51:35;;;;;;;15.35;8.30;;;2.30;99.90;;;;;;5002137;23;20061;-71
2021/12/06 02:54:01;;;;;;;12.82;8.25;;;2.30;99.90;;;;;;5002074;28;20022;-71
2021/12/06 02:58:59;;;;;;;16.27;9.85;;;2.30;99.90;;;;;;4986096;28;20062;-71
2021/12/06 03:01:41;;;;;;;19.55;10.13;;;2.30;99.90;;;;;;4972243;28;20034;-71
2021/12/06 03:04:07;;;;;;;14.93;8.38;;;2.40;99.90;;;;;;4962813;28;20138;-71
2021/12/06 03:06:34;;;;;;;15.43;9.57;;;2.40;99.90;;;;;;4970459;28;20031;-71
2021/12/06 03:09:24;;;;;;;13.15;9.05;;;2.40;99.90;;;;;;4971002;28;20030;-71
2021/12/06 03:11:52;;;;;;;15.32;9.10;;;2.40;99.90;;;;;;4963376;28;20030;-71
2021/12/06 03:14:28;;;;;;;13.88;9.00;;;2.40;99.90;;;;;;4970609;28;20483;-71
2021/12/06 03:16:57;;;;;;;15.30;8.18;;;2.40;99.90;;;;;;4969036;28;20367;-71
2021/12/06 03:19:23;;;;;;;16.52;9.52;;;2.40;99.90;;;;;;4967611;28;20022;-71
2021/12/06 03:21:50;;;;;;;14.52;9.07;;;2.40;99.90;;;;;;4968663;28;20037;-71
2021/12/06 03:24:16;;;;;;;15.93;8.30;;;2.40;99.90;;;;;;4972685;28;20428;-71
2021/12/06 03:26:43;;;;;;;14.93;8.27;;;2.40;99.90;;;;;;4970422;28;20442;-71
2021/12/06 03:29:10;;;;;;;16.48;8.52;;;2.30;99.90;;;;;;4971363;28;20046;-70
2021/12/06 03:31:36;;;;;;;16.63;8.65;;;2.30;99.90;;;;;;4972909;28;20018;-71
2021/12/06 03:34:02;;;;;;;16.65;8.70;;;2.30;99.90;;;;;;4967791;28;20034;-71
2021/12/06 03:36:30;;;;;;;15.52;9.02;;;2.30;99.90;;;;;;4974812;28;20034;-71
2021/12/06 03:39:00;;;;;;;15.45;8.07;;;2.20;99.90;;;;;;4969348;28;20034;-71
2021/12/06 03:41:28;;;;;;;13.65;7.93;;;2.20;99.90;;;;;;4971939;28;20038;-71
2021/12/06 03:43:54;;;;;;;14.70;8.50;;;2.20;99.90;;;;;;4966818;28;20122;-70
2021/12/06 03:46:22;;;;;;;13.77;8.05;;;2.20;99.90;;;;;;4964570;28;20181;-70
2021/12/06 03:48:49;;;;;;;12.98;7.22;;;2.20;99.90;;;;;;4967198;28;20030;-71
2021/12/06 03:51:15;;;;;;;12.65;7.03;;;2.30;99.90;;;;;;4971595;28;20471;-71
2021/12/06 03:53:41;;;;;;;14.73;7.43;;;2.30;99.90;;;;;;4971258;28;20098;-71
2021/12/06 03:56:07;;;;;;;14.00;8.20;;;2.20;99.90;;;;;;4972465;28;20145;-71
2021/12/06 03:58:35;;;;;;;13.23;8.07;;;2.30;99.90;;;;;;4972493;28;20103;-71
2021/12/06 04:01:03;;;;;;;11.75;7.32;;;2.20;99.90;;;;;;4984104;28;20039;-70
2021/12/06 04:03:30;;;;;;;12.77;7.97;;;2.20;99.90;;;;;;4966944;28;20093;-71
2021/12/06 04:05:57;;;;;;;13.27;7.07;;;2.20;99.90;;;;;;4968587;28;21200;-71
2021/12/06 04:08:25;;;;;;;14.75;7.28;;;2.30;99.90;;;;;;4974590;28;20364;-70
2021/12/06 04:10:50;;;;;;;12.57;6.97;;;2.30;99.90;;;;;;4972208;28;20527;-70
2021/12/06 04:13:17;;;;;;;11.50;5.72;;;2.30;99.90;;;;;;4961885;28;20110;-70
2021/12/06 04:15:44;;;;;;;9.70;6.22;;;2.30;99.90;;;;;;4966811;28;20026;-71
2021/12/06 04:18:10;;;;;;;11.93;6.18;;;2.30;99.90;;;;;;4983490;28;20085;-70
2021/12/06 04:20:37;;;;;;;10.15;5.80;;;2.30;99.90;;;;;;4967851;28;20110;-71
2021/12/06 04:23:06;;;;;;;10.90;5.93;;;2.30;99.90;;;;;;4969684;28;20034;-71
2021/12/06 04:25:32;;;;;;;15.15;7.00;;;2.30;99.90;;;;;;4969981;28;21015;-71
2021/12/06 04:28:03;;;;;;;9.02;5.28;;;2.30;99.90;;;;;;4968395;28;20097;-71
2021/12/06 04:30:30;;;;;;;9.30;5.63;;;2.30;99.90;;;;;;4969656;28;20494;-71
2021/12/06 04:32:56;;;;;;;10.63;5.65;;;2.30;99.90;;;;;;4969682;28;20035;-71
2021/12/06 04:35:23;;;;;;;8.45;5.07;;;2.30;99.90;;;;;;4970667;28;20038;-71
2021/12/06 04:37:49;;;;;;;9.32;5.18;;;2.40;99.90;;;;;;4969522;28;20562;-71
2021/12/06 04:40:15;;;;;;;9.07;4.72;;;2.40;99.90;;;;;;4973145;28;20070;-71
2021/12/06 04:42:41;;;;;;;10.50;5.28;;;2.40;99.90;;;;;;4966668;28;20117;-71
2021/12/06 04:45:09;;;;;;;10.45;6.97;;;2.40;99.90;;;;;;4970091;28;20090;-70
2021/12/06 04:47:34;;;;;;;16.17;8.30;;;2.40;99.90;;;;;;4965887;28;20388;-70
2021/12/06 04:50:00;;;;;;;13.73;7.90;;;2.40;99.90;;;;;;4971997;28;20031;-70
2021/12/06 04:52:26;;;;;;;15.50;7.75;;;2.50;99.90;;;;;;4970494;28;20030;-71
2021/12/06 04:54:55;;;;;;;18.63;8.27;;;2.50;99.90;;;;;;4973474;28;20027;-70
2021/12/06 04:57:30;;;;;;;16.38;7.88;;;2.60;99.90;;;;;;4969196;28;20024;-70
2021/12/06 05:00:08;;;;;;;12.40;7.78;;;2.60;99.90;;;;;;4967229;28;20070;-70
2021/12/06 05:02:37;;;;;;;12.55;7.82;;;2.60;99.90;;;;;;4985026;28;20399;-70
2021/12/06 05:05:09;;;;;;;14.55;8.18;;;2.60;99.90;;;;;;4972017;28;20113;-70
2021/12/06 05:07:45;;;;;;;12.18;6.95;;;2.60;99.90;;;;;;4966620;28;20055;-70
2021/12/06 05:10:14;;;;;;;13.88;7.72;;;2.70;99.90;;;;;;4984737;28;20027;-70
2021/12/06 05:12:41;;;;;;;12.55;7.43;;;2.70;99.90;;;;;;4970196;28;20030;-70
2021/12/06 05:15:08;;;;;;;12.52;7.63;;;2.70;99.90;;;;;;4964675;28;20023;-70
2021/12/06 05:17:34;;;;;;;11.27;7.07;;;2.70;99.90;;;;;;4968781;28;20031;-70
2021/12/06 05:20:01;;;;;;;12.45;7.45;;;2.70;99.90;;;;;;4970024;28;20037;-70
2021/12/06 05:22:28;;;;;;;13.80;7.80;;;2.70;99.90;;;;;;4983936;28;20510;-70
2021/12/06 05:24:54;;;;;;;13.38;7.30;;;2.70;99.90;;;;;;4967398;28;20105;-70
2021/12/06 05:27:26;;;;;;;12.82;7.65;;;2.70;99.90;;;;;;4968789;28;20022;-71
2021/12/06 05:29:56;;;;;;;14.13;7.53;;;2.70;99.90;;;;;;4968135;28;20027;-71
2021/12/06 05:32:25;;;;;;;14.05;7.82;;;2.70;99.90;;;;;;4965897;28;20034;-71
2021/12/06 05:34:57;;;;;;;12.20;6.97;;;2.70;99.90;;;;;;4966655;28;20033;-71
2021/12/06 05:37:23;;;;;;;13.70;7.75;;;2.70;99.90;;;;;;4968092;28;20034;-71
2021/12/06 05:39:49;;;;;;;15.13;7.60;;;2.70;99.90;;;;;;4965210;28;20042;-71
2021/12/06 05:42:15;;;;;;;12.73;7.30;;;2.70;99.90;;;;;;4964685;28;20031;-71
2021/12/06 05:44:41;;;;;;;12.98;7.88;;;2.70;99.90;;;;;;4959766;28;20050;-71
2021/12/06 05:47:09;;;;;;;15.40;7.80;;;2.70;99.90;;;;;;4966899;28;20030;-71
2021/12/06 05:49:35;;;;;;;14.43;7.72;;;2.80;99.90;;;;;;4970743;28;20030;-71
2021/12/06 05:52:02;;;;;;;13.10;7.13;;;2.70;99.90;;;;;;4969033;28;20102;-71
2021/12/06 05:54:28;;;;;;;13.93;7.00;;;2.60;99.90;;;;;;4969516;28;20062;-71
2021/12/06 05:56:55;;;;;;;14.52;7.65;;;2.70;99.90;;;;;;4968632;28;20086;-71
2021/12/06 05:59:21;;;;;;;12.48;6.70;;;2.70;99.90;;;;;;4965154;28;20110;-71
2021/12/06 06:01:49;;;;;;;16.13;7.13;;;2.70;99.90;;;;;;4966057;28;20045;-71
2021/12/06 06:04:14;;;;;;;12.77;7.47;;;2.70;99.90;;;;;;4966338;28;20035;-71
2021/12/06 06:06:40;;;;;;;12.15;7.15;;;2.70;99.90;;;;;;4972325;28;20027;-71
2021/12/06 06:09:07;;;;;;;15.23;7.30;;;2.70;99.90;;;;;;4974590;28;20034;-71
2021/12/06 06:11:34;;;;;;;10.20;6.75;;;2.80;99.90;;;;;;4965645;28;20026;-71
2021/12/06 06:14:02;;;;;;;16.05;7.75;;;2.80;99.90;;;;;;4964447;28;20035;-66
2021/12/06 06:16:32;;;;;;;15.43;7.80;;;2.80;99.90;;;;;;4955713;28;20027;-66
2021/12/06 06:18:58;;;;;;;12.55;7.63;;;2.80;99.90;;;;;;4970519;28;20026;-71
2021/12/06 06:21:26;;;;;;;12.65;7.63;;;2.90;99.90;;;;;;4954132;28;20019;-71
2021/12/06 06:23:52;;;;;;;14.27;7.50;;;2.90;99.90;;;;;;4956984;28;20026;-71
2021/12/06 06:26:17;;;;;;;11.15;7.63;;;3.00;99.90;;;;;;4968767;28;20031;-71
2021/12/06 06:28:43;;;;;;;12.35;7.28;;;2.90;99.90;;;;;;4969238;28;20038;-71
2021/12/06 06:31:12;;;;;;;10.95;6.45;;;3.00;99.90;;;;;;4968881;28;20026;-71
2021/12/06 06:33:37;;;;;;;12.90;7.40;;;3.00;99.90;;;;;;4962182;28;20030;-71
2021/12/06 06:36:04;;;;;;;12.85;7.10;;;2.90;99.90;;;;;;4984390;28;20034;-71
2021/12/06 06:38:30;;;;;;;11.57;7.05;;;2.90;99.90;;;;;;4972554;28;20081;-72
2021/12/06 06:40:56;;;;;;;12.30;7.15;;;2.90;99.90;;;;;;4964095;28;20030;-72
2021/12/06 06:43:21;;;;;;;14.30;7.90;;;2.90;99.90;;;;;;4970979;28;20023;-72
2021/12/06 06:45:47;;;;;;;11.63;6.93;;;2.90;99.90;;;;;;4973027;28;20041;-72
2021/12/06 06:48:13;;;;;;;12.00;7.18;;;2.90;99.90;;;;;;4971238;28;20480;-72
2021/12/06 06:50:39;;;;;;;15.57;8.48;;;2.90;99.90;;;;;;4968246;28;20621;-73
2021/12/06 06:53:11;;;;;;;12.77;7.00;;;2.90;99.90;;;;;;4968499;28;20038;-73
2021/12/06 06:55:36;;;;;;;15.30;7.65;;;2.80;99.90;;;;;;4966944;28;20068;-72
2021/12/06 06:58:03;;;;;;;13.07;7.90;;;2.90;99.90;;;;;;4968379;28;20499;-71
2021/12/06 07:00:34;;;;;;;14.98;7.78;;;2.90;99.90;;;;;;4966813;28;20026;-72
2021/12/06 07:03:01;;;;;;;12.20;7.65;;;2.90;99.90;;;;;;4962461;28;20031;-71
2021/12/06 07:05:28;;;;;;;14.90;8.18;;;2.90;99.90;;;;;;4966242;28;20127;-71
2021/12/06 07:07:55;;;;;;;14.35;7.97;;;2.90;99.90;;;;;;4968110;28;20057;-71
2021/12/06 07:10:23;;;;;;;12.32;7.18;;;3.00;99.90;;;;;;4965884;28;20022;-71
2021/12/06 07:12:51;;;;;;;12.52;7.50;;;2.90;99.90;;;;;;4964456;28;20453;-72
2021/12/06 07:15:29;;;;;;;15.50;7.85;;;2.90;99.90;;;;;;4966964;28;20027;-71
2021/12/06 07:17:55;;;;;;;15.00;7.97;;;2.90;99.90;;;;;;4983574;28;20496;-70
2021/12/06 07:20:22;;;;;;;13.02;7.65;;;3.00;99.90;;;;;;4967881;28;20033;-70
2021/12/06 07:22:51;;;;;;;14.32;7.57;;;2.90;99.90;;;;;;4965766;28;20026;-69
2021/12/06 07:25:21;;;;;;;17.10;9.27;;;3.00;99.90;;;;;;4967481;28;20022;-69
2021/12/06 07:27:53;;;;;;;13.45;8.18;;;3.00;99.90;;;;;;4971502;28;20027;-69
2021/12/06 07:30:19;;;;;;;11.10;7.03;;;3.00;99.90;;;;;;4964801;28;20051;-69
2021/12/06 07:32:50;;;;;;;15.90;8.75;;;3.00;99.90;;;;;;4969315;28;20034;-69
2021/12/06 07:35:16;;;;;;;15.20;8.85;;;3.00;99.90;;;;;;4968681;28;20436;-69
2021/12/06 07:37:42;;;;;;;13.55;8.70;;;3.00;99.90;;;;;;4971709;28;20031;-69
2021/12/06 07:40:10;;;;;;;16.00;9.25;;;3.00;99.90;;;;;;4969481;28;20035;-69
2021/12/06 07:42:37;;;;;;;15.93;8.63;;;3.00;99.90;;;;;;4970289;28;20504;-69
2021/12/06 07:45:07;;;;;;;15.38;8.88;;;3.00;99.90;;;;;;4971781;28;20400;-69
2021/12/06 07:47:37;;;;;;;16.15;9.27;;;3.00;99.90;;;;;;4969385;28;20029;-69
2021/12/06 07:50:04;;;;;;;15.40;9.77;;;3.00;99.90;;;;;;4986750;28;20486;-69
2021/12/06 07:52:30;;;;;;;18.00;9.50;;;3.00;99.90;;;;;;4966856;28;20106;-69
2021/12/06 07:54:59;;;;;;;15.65;8.93;;;3.00;99.90;;;;;;4970399;28;20035;-69
2021/12/06 07:57:28;;;;;;;15.32;9.15;;;3.00;99.90;;;;;;4973049;28;20037;-69
2021/12/06 07:59:55;;;;;;;18.27;8.85;;;3.10;99.90;;;;;;4968618;28;20043;-69
2021/12/06 08:02:21;;;;;;;17.98;9.50;;;3.10;99.90;;;;;;4958647;28;20030;-69
2021/12/06 08:04:54;;;;;;;16.75;9.10;;;3.00;99.90;;;;;;4966954;28;20046;-69
2021/12/06 08:07:19;;;;;;;17.42;9.20;;;3.10;99.90;;;;;;4973790;28;20018;-69
2021/12/06 08:09:49;;;;;;;17.55;9.30;;;3.10;99.90;;;;;;4968582;28;20027;-68
2021/12/06 08:12:15;;;;;;;17.38;9.38;;;3.10;99.90;;;;;;4986062;28;20054;-68
2021/12/06 08:14:40;;;;;;;16.55;9.70;;;3.10;99.90;;;;;;4967517;28;20554;-70
2021/12/06 08:17:06;;;;;;;14.15;7.70;;;3.20;99.90;;;;;;4970204;28;20412;-69
2021/12/06 08:19:32;;;;;;;12.25;8.23;;;3.20;99.90;;;;;;4960546;28;20045;-68
2021/12/06 08:21:57;;;;;;;18.23;9.27;;;3.20;99.90;;;;;;4964533;28;20027;-69
2021/12/06 08:24:23;;;;;;;15.25;8.80;;;3.20;99.90;;;;;;4964161;28;20110;-69
2021/12/06 08:26:49;;;;;;;11.82;7.78;;;3.20;99.90;;;;;;4969641;28;20595;-69
2021/12/06 08:29:16;;;;;;;14.90;8.85;;;3.20;99.90;;;;;;4973158;28;20042;-69
2021/12/06 08:31:44;;;;;;;15.57;8.60;;;3.20;99.90;;;;;;4964455;28;20097;-69
2021/12/06 08:34:11;;;;;;;24.17;9.30;;;3.20;99.90;;;;;;4968962;28;20388;-69
2021/12/06 08:36:37;;;;;;;17.75;9.43;;;3.20;99.90;;;;;;4968552;28;20049;-69
2021/12/06 08:39:07;;;;;;;18.25;8.55;;;3.20;99.90;;;;;;4997816;28;20022;-69
2021/12/06 08:41:33;;;;;;;17.67;9.32;;;3.30;99.90;;;;;;4968501;28;20508;-69
2021/12/06 08:44:03;;;;;;;17.42;8.73;;;3.30;99.90;;;;;;4970020;28;20103;-69
2021/12/06 08:46:36;;;;;;;14.90;8.30;;;3.30;99.90;;;;;;4967469;28;20118;-69
2021/12/06 08:49:05;;;;;;;16.77;8.95;;;3.40;99.90;;;;;;4966355;28;20030;-69
2021/12/06 08:51:38;;;;;;;13.95;8.30;;;3.40;99.90;;;;;;4972179;23;20043;-70
2021/12/06 08:54:06;;;;;;;16.27;9.15;;;3.50;99.90;;;;;;4967264;28;20027;-72
2021/12/06 08:56:32;;;;;;;20.17;9.05;;;3.50;99.90;;;;;;4974394;28;20031;-70
2021/12/06 08:58:58;;;;;;;15.05;8.02;;;3.50;99.90;;;;;;4969130;28;20029;-71
2021/12/06 09:01:25;;;;;;;15.57;8.50;;;3.50;99.90;;;;;;4980654;28;20027;-70
2021/12/06 09:03:54;;;;;;;11.77;7.60;;;3.50;99.90;;;;;;4967172;28;20031;-71
2021/12/06 09:06:26;;;;;;;14.00;8.77;;;3.50;99.90;;;;;;4970886;28;20034;-71
2021/12/06 09:08:54;;;;;;;16.55;8.38;;;3.50;99.90;;;;;;4967692;28;20030;-70
2021/12/06 09:11:20;;;;;;;17.00;8.73;;;3.50;99.90;;;;;;4964467;28;20022;-70
2021/12/06 09:13:46;;;;;;;14.50;8.43;;;3.50;99.90;;;;;;4959186;28;20037;-70
2021/12/06 09:16:13;;;;;;;14.73;8.77;;;3.60;99.90;;;;;;4965828;28;20136;-70
2021/12/06 09:18:45;;;;;;;17.63;10.20;;;3.60;99.90;;;;;;4972832;28;20121;-70
2021/12/06 09:21:15;;;;;;;20.95;9.38;;;3.70;99.90;;;;;;4966277;28;20031;-70
2021/12/06 09:23:42;;;;;;;14.27;8.77;;;3.70;99.90;;;;;;4963545;28;20054;-70
2021/12/06 09:26:08;;;;;;;16.52;9.27;;;3.70;99.90;;;;;;4965535;28;20034;-70
2021/12/06 09:28:34;;;;;;;15.60;8.80;;;3.80;99.90;;;;;;4969742;28;20031;-70
2021/12/06 09:31:03;;;;;;;14.38;8.18;;;3.80;99.90;;;;;;4960595;28;20027;-69
2021/12/06 09:33:31;;;;;;;15.48;8.32;;;3.90;99.90;;;;;;4964001;28;20023;-70
2021/12/06 09:35:58;;;;;;;16.05;9.43;;;3.90;99.90;;;;;;4974170;28;20117;-70
2021/12/06 09:38:37;;;;;;;16.13;8.48;;;4.00;99.90;;;;;;4966303;28;20034;-70
2021/12/06 09:41:08;;;;;;;15.43;8.15;;;4.00;99.90;;;;;;4968636;28;20034;-70
2021/12/06 09:43:38;;;;;;;15.43;7.88;;;4.00;99.90;;;;;;4977738;28;20042;-70
2021/12/06 09:46:05;;;;;;;13.07;6.88;;;4.10;99.90;;;;;;4969631;28;20388;-70
2021/12/06 09:48:31;;;;;;;16.17;7.00;;;4.00;99.90;;;;;;4972580;28;20416;-71
2021/12/06 09:51:00;;;;;;;13.65;7.80;;;4.00;99.90;;;;;;4966393;28;20031;-70
2021/12/06 09:53:29;;;;;;;13.13;7.80;;;4.00;99.90;;;;;;4971090;28;20055;-70
2021/12/06 09:56:00;;;;;;;16.90;9.27;;;3.90;99.90;;;;;;4968596;28;20121;-70
2021/12/06 09:58:25;;;;;;;16.60;8.90;;;4.00;99.90;;;;;;4985953;28;20030;-70
2021/12/06 10:01:00;;;;;;;14.15;8.05;;;3.90;99.90;;;;;;4966175;28;20035;-70
2021/12/06 10:03:29;;;;;;;16.52;9.35;;;3.90;99.90;;;;;;4969735;28;20031;-70
2021/12/06 10:06:02;;;;;;;16.85;9.60;;;3.90;99.90;;;;;;4964948;28;20035;-70
2021/12/06 10:08:29;;;;;;;19.80;8.63;;;3.90;99.90;;;;;;4972984;28;20088;-69
2021/12/06 10:10:58;;;;;;;16.27;9.82;;;3.90;99.90;;;;;;4987438;28;20035;-70
2021/12/06 10:13:24;;;;;;;18.27;10.63;;;3.80;99.90;;;;;;4970843;28;20031;-70
2021/12/06 10:16:00;;;;;;;15.57;9.52;;;3.80;99.90;;;;;;4967393;28;20031;-70
2021/12/06 10:18:38;;;;;;;15.38;8.80;;;3.80;99.90;;;;;;4968049;28;20034;-70
2021/12/06 10:21:06;;;;;;;17.48;9.52;;;3.80;99.90;;;;;;4970478;28;20107;-70
2021/12/06 10:23:37;;;;;;;16.35;9.45;;;3.80;99.90;;;;;;4967948;28;20053;-70
2021/12/06 10:26:15;;;;;;;18.25;10.52;;;3.90;99.90;;;;;;4972785;28;20608;-71
2021/12/06 10:28:43;;;;;;;14.90;8.63;;;3.90;99.90;;;;;;4961639;28;20133;-70
2021/12/06 10:31:14;;;;;;;19.48;9.18;;;3.80;99.90;;;;;;4965555;28;20034;-70
2021/12/06 10:33:47;;;;;;;15.85;8.80;;;3.80;99.90;;;;;;4974059;28;20287;-70
2021/12/06 10:36:16;;;;;;;14.45;7.93;;;3.90;99.90;;;;;;4972959;28;20038;-70
2021/12/06 10:38:47;;;;;;;15.15;9.27;;;3.90;99.90;;;;;;4972101;28;20038;-70
2021/12/06 10:41:21;;;;;;;14.05;8.40;;;3.90;99.90;;;;;;4972872;28;20500;-70
2021/12/06 10:43:57;;;;;;;14.52;9.30;;;4.00;99.90;;;;;;4970173;28;20067;-70
2021/12/06 10:46:28;;;;;;;16.08;8.55;;;4.00;99.90;;;;;;4985016;28;20039;-70
2021/12/06 10:48:57;;;;;;;14.50;8.60;;;4.00;99.90;;;;;;4972073;28;20038;-70
2021/12/06 10:51:27;;;;;;;15.73;8.65;;;4.00;99.90;;;;;;4985319;28;20097;-70
2021/12/06 10:54:05;;;;;;;16.85;9.23;;;4.10;99.90;;;;;;4974453;28;20487;-70
2021/12/06 10:56:44;;;;;;;18.90;9.38;;;4.10;99.90;;;;;;4964176;28;20019;-70
2021/12/06 10:59:56;;;;;;;17.90;9.35;;;4.00;99.90;;;;;;4971294;28;20490;-70
2021/12/06 11:02:22;;;;;;;17.35;8.98;;;4.00;99.90;;;;;;4950046;28;20047;-70
2021/12/06 11:04:48;;;;;;;14.95;9.48;;;4.10;99.90;;;;;;4965203;28;20479;-71
2021/12/06 11:07:13;;;;;;;17.00;10.80;;;4.10;99.90;;;;;;4970998;28;20022;-71
2021/12/06 11:09:42;;;;;;;15.57;8.27;;;4.10;99.90;;;;;;4986325;28;20030;-71
2021/12/06 11:12:10;;;;;;;16.38;9.20;;;4.20;99.90;;;;;;4964354;28;20038;-70
2021/12/06 11:14:41;;;;;;;16.10;8.35;;;4.30;99.90;;;;;;4965245;28;20074;-70
2021/12/06 11:17:10;;;;;;;12.70;7.57;;;4.30;99.90;;;;;;4981961;28;20050;-70
2021/12/06 11:19:36;;;;;;;15.35;8.07;;;4.40;99.90;;;;;;4979171;28;20031;-71
2021/12/06 11:22:06;;;;;;;15.05;7.75;;;4.40;99.90;;;;;;4969203;28;20484;-71
2021/12/06 11:24:46;;;;;;;17.77;8.93;;;4.40;99.90;;;;;;4970937;28;20514;-71
2021/12/06 11:27:20;;;;;;;15.68;8.75;;;4.40;99.90;;;;;;4967953;28;20058;-71
2021/12/06 11:30:06;;;;;;;15.88;9.13;;;4.50;99.90;;;;;;4967656;28;20035;-71
2021/12/06 11:32:45;;;;;;;19.55;9.60;;;4.40;99.90;;;;;;4968945;28;20321;-72
2021/12/06 11:35:20;;;;;;;21.15;10.63;;;4.30;99.90;;;;;;4964278;28;20099;-71
2021/12/06 11:37:55;;;;;;;15.63;8.88;;;4.40;99.90;;;;;;4973262;28;20039;-71
2021/12/06 11:40:23;;;;;;;16.92;9.13;;;4.40;99.90;;;;;;4965819;28;20038;-71
2021/12/06 11:43:03;;;;;;;14.77;8.00;;;4.40;99.90;;;;;;4976465;28;20046;-71
2021/12/06 11:45:49;;;;;;;12.55;7.55;;;4.50;99.90;;;;;;4976204;28;20027;-72
2021/12/06 11:48:38;;;;;;;12.55;7.30;;;4.60;99.90;;;;;;4975874;28;20030;-70
2021/12/06 11:51:08;;;;;;;13.32;7.43;;;4.60;99.90;;;;;;4971581;28;20503;-70
2021/12/06 11:53:52;;;;;;;10.65;6.70;;;4.70;99.90;;;;;;4965949;28;20034;-70
2021/12/06 11:56:19;;;;;;;11.18;6.55;;;4.70;99.90;;;;;;4955181;29;20091;-70
2021/12/06 11:58:47;;;;;;;14.88;6.18;;;4.80;99.90;;;;;;4966730;28;20033;-71
2021/12/06 12:01:38;;;;;;;12.43;6.15;;;4.80;99.90;;;;;;4973332;28;20034;-69
2021/12/06 12:04:10;;;;;;;11.00;6.00;;;4.80;99.90;;;;;;4967574;28;20115;-70
2021/12/06 12:06:54;;;;;;;10.30;5.60;;;4.80;99.90;;;;;;4997499;28;20027;-70
2021/12/06 12:09:22;;;;;;;;;;;4.80;99.90;;;;;;4974554;28;20035;-70
2021/12/06 12:12:13;;;;;;;10.38;5.47;;;4.80;99.90;;;;;;4976513;28;19910;-70
2021/12/06 12:14:49;;;;;;;12.00;6.22;;;4.90;99.90;;;;;;4969212;28;20399;-71
2021/12/06 12:17:20;;;;;;;10.25;5.35;;;4.90;99.90;;;;;;4974643;28;20483;-71
2021/12/06 12:19:48;;;;;;;12.27;6.05;;;5.00;99.90;;;;;;4975913;28;20031;-71
2021/12/06 12:22:16;;;;;;;11.90;6.15;;;5.00;99.90;;;;;;4971362;28;20034;-70
2021/12/06 12:24:46;;;;;;;9.25;5.38;;;5.10;99.90;;;;;;4971005;28;20052;-71
2021/12/06 12:29:42;;;;;;;12.73;6.20;;;5.20;99.90;;;;;;4971690;28;20488;-71
2021/12/06 12:32:08;;;;;;;10.57;4.60;;;5.20;99.90;;;;;;4971933;28;20046;-70
2021/12/06 12:34:37;;;;;;;8.75;4.53;;;5.10;99.90;;;;;;4980600;28;20390;-71
2021/12/06 12:37:07;;;;;;;9.60;5.10;;;5.10;99.90;;;;;;4980126;28;20041;-72
2021/12/06 12:39:34;;;;;;;7.82;4.30;;;5.10;99.90;;;;;;4971908;28;20050;-71
2021/12/06 12:42:03;;;;;;;10.38;4.72;;;5.00;99.90;;;;;;4972098;28;20027;-71
2021/12/06 12:44:47;;;;;;;10.02;4.75;;;4.90;99.90;;;;;;4971024;28;20034;-70
2021/12/06 12:47:19;;;;;;;8.55;4.25;;;4.80;99.90;;;;;;4972035;28;20031;-70
2021/12/06 12:49:54;;;;;;;7.82;4.43;;;4.80;99.90;;;;;;4985780;28;20502;-70
2021/12/06 12:52:41;;;;;;;9.27;4.28;;;4.80;99.90;;;;;;4968950;28;20092;-71
2021/12/06 12:55:37;;;;;;;6.55;4.03;;;4.90;99.90;;;;;;4965625;28;20032;-71
2021/12/06 12:58:19;;;;;;;5.60;3.25;;;4.90;99.90;;;;;;4969265;28;20034;-69
2021/12/06 13:00:56;;;;;;;7.05;3.30;;;4.90;99.90;;;;;;4972991;28;20022;-69
2021/12/06 13:03:43;;;;;;;6.38;3.38;;;4.80;99.90;;;;;;4975709;28;20038;-69
2021/12/06 13:06:35;;;;;;;5.50;2.85;;;4.70;99.90;;;;;;4982812;28;20034;-68
2021/12/06 13:09:05;;;;;;;4.32;2.88;;;4.60;99.90;;;;;;4967255;28;20503;-70
2021/12/06 13:11:56;;;;;;;7.50;3.30;;;4.50;99.90;;;;;;4974133;28;20431;-71
2021/12/06 13:14:37;;;;;;;4.63;2.58;;;4.40;99.90;;;;;;4968508;28;20110;-69